Historyczne dane pomiarowe

Dodano dane terminowe – wersja testowa.

Dane z okresu 1951-2019

Wersja bazy: 1.34 [2019-03-16, lista zmian], aktualizacja planowana na 2019-04-15

Dane meteo z obszaru Polski uzyskane na podstawie danych udostępnionych przez Instytut Meteorologii i Gospodarki Wodnej – Państwowy Instytut Badawczy.

 

Wybierz Datę:    

       

TemperaturaWilgotnośćWiatrCiśnienieOpadyŚniegCzas trwania zjawisk
 Stacja t tx tn tng RH VA  wxwx mslp ppp RRR   cm mm wxwxwxwxwxwxwx
1987-08-14 15.0 19.6 9.7- 69.5- 5.7 3.0---- 0.6------------
1987-08-13 12.1 15.6 8.7- 74.5- 6.0 1.7---- 0.3------------
1987-08-12 11.7 16.6 6.2- 67.5- 4.7 1.3---- 8.6------------
1987-08-11 11.1 13.6 7.2- 69.8- 6.3 3.3---- 0.0------------
1987-08-10 10.9 15.6 7.7- 76.5- 8.0 0.0---- 2.0------------
1987-08-09 15.5 20.6 10.7- 65.8- 5.3 3.0---- 11.6------------
1987-08-08 14.0 18.6 6.2- 58.0- 4.0 4.7---- 0.0------------
1987-08-07 10.9 15.6 5.2- 64.8- 4.0 3.7---- 0.0------------
1987-08-06 10.0 13.1 6.7- 62.3- 5.3 3.0---- 0.2------------
1987-08-05 9.8 14.1 4.2- 67.3- 7.0 5.0---- 0.2------------
1987-08-04 12.4 15.6 10.7- 66.8- 3.7 3.3---- 0.1------------
1987-08-03 12.9 17.6 8.7- 66.3- 6.0 3.3---- 2.9------------
1987-08-02 11.9 15.6 9.2- 66.8- 7.3 3.0---- 0.0------------
1987-08-01 13.7 16.6 10.2- 74.8- 6.7 5.7---- 12.8------------
1987-07-31 13.0 18.1 9.7- 70.8- 8.0 5.0---- 0.0------------
1987-07-30 16.9 22.6 10.2- 65.8- 5.3 4.3---- 3.5------------
1987-07-29 12.3 16.6 8.7- 70.0- 5.3 2.7---- 0.0------------
1987-07-28 11.2 12.6 8.7- 69.8- 8.0 7.0---- 0.3------------
1987-07-27 10.6 13.6 6.7- 65.0- 6.0 7.3---- 7.2------------
1987-07-26 11.1 13.1 8.7- 65.8- 6.7 2.7---- 1.0------------
1987-07-25 14.9 19.6 11.7- 74.5- 7.7 3.3---- 0.0------------
1987-07-24 18.2 22.1 12.7- 68.0- 5.3 0.0---- 0.0------------
1987-07-23 18.1 22.1 12.7- 68.3- 5.0 0.0---- 0.0------------
1987-07-22 16.4 20.6 10.2- 71.8- 3.0 1.0---- 0.0------------
1987-07-21 13.5 19.1 11.7- 79.8- 8.0 0.0---- 2.5------------
1987-07-20 16.1 20.6 12.7- 69.8- 5.0 0.0---- 0.0------------
1987-07-19 17.0 22.6 13.2- 73.8- 8.0 0.0---- 27.6------------
1987-07-18 18.2 24.6 15.2- 69.5- 7.0 1.7---- 0.8------------
1987-07-17 23.2 27.6 19.2- 62.5- 4.3 6.3---- 0.0------------
1987-07-16 20.6 25.6 15.2- 67.0- 6.7 2.0---- 0.0------------
1987-07-15 18.1 23.6 10.2- 54.0- 0.7 3.7---- 0.0------------
1987-07-14 14.2 19.6 7.2- 61.0- 0.0 1.7---- 0.0------------
1987-07-13 14.6 18.1 10.2- 65.8- 4.7 4.0---- 0.0------------
1987-07-12 21.0 25.1 17.2- 55.0- 5.7 5.0---- 5.2------------
1987-07-11 16.1 22.1 8.2- 59.8- 5.3 6.3---- 0.0------------
1987-07-10 12.3 16.6 8.2- 60.8- 6.3 2.3---- 0.0------------
1987-07-09 14.5 17.6 12.2- 72.5- 7.3 1.7---- 0.0------------
1987-07-08 18.7 23.1 16.7- 74.5- 6.7 0.0---- 16.6------------
1987-07-07 19.9 24.1 11.2- 51.5- 0.0 6.0---- 0.0------------
1987-07-06 16.1 21.6 9.2- 64.5- 0.7 4.0---- 0.0------------
1987-07-05 14.1 16.6 11.2- 64.5- 3.3 3.3---- 0.0------------
1987-07-04 15.8 19.1 12.7- 72.0- 7.7 0.0---- 0.0------------
1987-07-03 17.0 21.6 11.2- 65.3- 2.3 3.7---- 0.0------------
1987-07-02 17.1 20.6 13.2- 68.8- 7.3 0.0---- 0.0------------
1987-07-01 23.4 28.1 20.2- 70.8- 7.3 2.7---- 8.8------------
1987-06-30 23.1 28.6 15.7- 62.0- 0.0 3.0---- 0.0------------
1987-06-29 20.4 25.6 13.7- 71.5- 2.3 1.7---- 0.0------------
1987-06-28 18.0 21.6 10.7- 66.5- 5.7 4.0---- 0.0------------
1987-06-27 15.8 19.1 12.7- 73.8- 5.7 1.7---- 0.3------------
1987-06-26 14.4 21.1 6.7- 65.5- 5.7 5.0---- 0.5------------
1987-06-25 11.5 14.6 9.2- 75.0- 8.0 0.0---- 0.7------------
1987-06-24 12.9 16.1 9.7- 68.0- 5.3 0.0---- 6.1------------
1987-06-23 12.4 16.6 7.7- 71.3- 7.0 0.0---- 0.2------------
1987-06-22 10.5 13.1 8.7- 81.8- 8.0 0.0---- 5.7------------
1987-06-21 13.4 15.6 10.7- 76.0- 8.0 0.0---- 15.4------------
1987-06-20 14.0 17.6 11.2- 62.8- 7.3 7.7---- 0.0------------
1987-06-19 10.5 15.6 5.7- 63.5- 3.7 6.7---- 0.0------------
1987-06-18 6.9 11.6 5.7- 76.5- 8.0 3.0---- 2.1------------
1987-06-17 9.8 14.6 7.2- 56.8- 6.3 4.0---- 3.6------------
1987-06-16 9.5 17.6 6.2- 73.8- 8.0 5.3---- 0.0------------
376.0 ms

 

Źródłem pochodzenia danych jest Instytut Meteorologii i Gospodarki Wodnej – Państwowy Instytut Badawczy. Dane Instytutu Meteorologii i Gospodarki Wodnej – Państwowego Instytutu Badawczego zostały przetworzone.

Dane źródłowe można odnaleźć na stronie https://dane.imgw.pl